createdAt,value
2023-03-07T00:01:16.869Z,-1.44
2023-03-07T00:03:50.053Z,-1.48
2023-03-07T00:06:36.939Z,-1.55
2023-03-07T00:09:16.877Z,-1.61
2023-03-07T00:12:03.845Z,-1.63
2023-03-07T00:14:36.967Z,-1.67
2023-03-07T00:17:23.850Z,-1.68
2023-03-07T00:19:56.983Z,-1.72
2023-03-07T00:22:43.849Z,-1.78
2023-03-07T00:25:17.938Z,-1.79
2023-03-07T00:28:04.898Z,-1.80
2023-03-07T00:30:37.943Z,-1.81
2023-03-07T00:33:24.884Z,-1.83
2023-03-07T00:36:09.959Z,-1.86
2023-03-07T00:38:57.895Z,-1.86
2023-03-07T00:41:34.021Z,-1.91
2023-03-07T00:44:21.846Z,-1.93
2023-03-07T00:46:54.962Z,-1.94
2023-03-07T00:49:41.892Z,-1.98
2023-03-07T00:52:15.056Z,-2.01
2023-03-07T00:55:01.969Z,-2.06
2023-03-07T00:57:34.971Z,-2.08
2023-03-07T01:00:21.867Z,-2.06
2023-03-07T01:03:03.861Z,-2.04
2023-03-07T01:05:57.880Z,-2.07
2023-03-07T01:08:44.880Z,-2.08
2023-03-07T01:11:19.038Z,-2.08
2023-03-07T01:14:07.933Z,-2.10
2023-03-07T01:16:44.206Z,-2.08
2023-03-07T01:19:30.885Z,-2.08
2023-03-07T01:22:03.976Z,-2.09
2023-03-07T01:24:50.893Z,-2.12
2023-03-07T01:27:23.984Z,-2.15
2023-03-07T01:30:12.861Z,-2.15
2023-03-07T01:32:52.913Z,-2.11
2023-03-07T01:35:45.872Z,-2.07
2023-03-07T01:38:19.012Z,-2.02
2023-03-07T01:41:08.885Z,-1.99
2023-03-07T01:43:42.990Z,-2.00
2023-03-07T01:46:56.932Z,-2.05
2023-03-07T01:49:47.901Z,-2.11
2023-03-07T01:52:55.005Z,-2.11
2023-03-07T01:55:43.895Z,-2.08
2023-03-07T01:58:20.012Z,-2.10
2023-03-07T02:01:06.959Z,-2.11
2023-03-07T02:03:49.993Z,-2.12
2023-03-07T02:06:41.947Z,-2.13
2023-03-07T02:09:27.876Z,-2.15
2023-03-07T02:12:08.897Z,-2.16
2023-03-07T02:14:53.895Z,-2.15
2023-03-07T02:17:27.982Z,-2.16
2023-03-07T02:20:56.884Z,-2.15
2023-03-07T02:24:13.998Z,-2.25
2023-03-07T02:27:00.890Z,-2.33
2023-03-07T02:29:40.910Z,-2.39
2023-03-07T02:32:34.961Z,-2.37
2023-03-07T02:35:37.979Z,-2.36
2023-03-07T02:38:31.903Z,-2.43
2023-03-07T02:41:19.881Z,-2.42
2023-03-07T02:43:59.933Z,-2.43
2023-03-07T02:46:46.889Z,-2.42
2023-03-07T02:49:27.897Z,-2.46
2023-03-07T02:52:21.903Z,-2.46
2023-03-07T02:55:15.896Z,-2.52
2023-03-07T02:58:02.922Z,-2.54
2023-03-07T03:00:37.103Z,-2.54
2023-03-07T03:03:23.911Z,-2.60
2023-03-07T03:06:03.943Z,-2.60
2023-03-07T03:08:50.932Z,-2.59
2023-03-07T03:11:30.902Z,-2.58
2023-03-07T03:14:24.932Z,-2.60
2023-03-07T03:17:11.942Z,-2.61
2023-03-07T03:19:45.020Z,-2.66
2023-03-07T03:22:31.915Z,-2.64
2023-03-07T03:25:05.010Z,-2.64
2023-03-07T03:27:51.909Z,-2.66
2023-03-07T03:30:26.721Z,-2.70
2023-03-07T03:33:13.916Z,-2.75
2023-03-07T03:35:47.092Z,-2.76
2023-03-07T03:38:33.926Z,-2.78
2023-03-07T03:41:11.038Z,-2.77
2023-03-07T03:43:58.017Z,-2.81
2023-03-07T03:46:31.035Z,-2.88
2023-03-07T03:49:22.935Z,-2.93
2023-03-07T03:51:56.038Z,-2.94
2023-03-07T03:54:42.961Z,-2.95
2023-03-07T03:57:18.042Z,-2.99
2023-03-07T04:00:04.911Z,-3.01
2023-03-07T04:02:38.214Z,-3.05
2023-03-07T04:05:24.928Z,-3.10
2023-03-07T04:08:04.942Z,-3.12
2023-03-07T04:10:58.989Z,-3.16
2023-03-07T04:13:45.956Z,-3.16
2023-03-07T04:16:19.157Z,-3.16
2023-03-07T04:19:05.944Z,-3.12
2023-03-07T04:21:39.754Z,-3.10
2023-03-07T04:24:26.931Z,-3.06
2023-03-07T04:27:00.135Z,-3.05
2023-03-07T04:29:46.926Z,-3.06
2023-03-07T04:32:20.177Z,-3.06
2023-03-07T04:35:06.981Z,-3.07
2023-03-07T04:37:46.935Z,-3.06
2023-03-07T04:40:41.061Z,-3.08
2023-03-07T04:43:34.946Z,-3.10
2023-03-07T04:46:15.990Z,-3.12
2023-03-07T04:48:55.959Z,-3.08
2023-03-07T04:51:30.045Z,-3.09
2023-03-07T04:54:16.937Z,-3.08
2023-03-07T04:56:50.107Z,-3.08
2023-03-07T04:59:37.087Z,-3.06
2023-03-07T05:02:10.065Z,-3.05
2023-03-07T05:04:56.974Z,-3.10
2023-03-07T05:07:37.068Z,-3.15
2023-03-07T05:10:23.927Z,-3.17
2023-03-07T05:12:57.064Z,-3.16
2023-03-07T05:15:44.055Z,-3.13
2023-03-07T05:18:24.013Z,-3.13
2023-03-07T05:21:10.952Z,-3.15
2023-03-07T05:23:44.120Z,-3.16
2023-03-07T05:26:30.959Z,-3.14
2023-03-07T05:29:04.547Z,-3.08
2023-03-07T05:31:50.965Z,-3.06
2023-03-07T05:34:24.121Z,-3.00
2023-03-07T05:37:10.942Z,-2.95
2023-03-07T05:39:44.051Z,-2.95
2023-03-07T05:42:30.957Z,-2.94
2023-03-07T05:45:04.139Z,-2.92
2023-03-07T05:47:50.973Z,-2.89
2023-03-07T05:50:31.957Z,-2.86
2023-03-07T05:53:25.977Z,-2.81
2023-03-07T05:56:12.992Z,-2.77
2023-03-07T05:58:52.975Z,-2.73
2023-03-07T06:01:47.968Z,-2.67
2023-03-07T06:04:42.006Z,-2.61
2023-03-07T06:07:28.977Z,-2.59
2023-03-07T06:10:08.953Z,-2.53
2023-03-07T06:13:06.962Z,-2.45
2023-03-07T06:15:57.973Z,-2.39
2023-03-07T06:18:32.067Z,-2.36
2023-03-07T06:21:22.963Z,-2.26
2023-03-07T06:24:02.972Z,-2.14
2023-03-07T06:26:56.987Z,-1.97
2023-03-07T06:29:50.979Z,-1.83
2023-03-07T06:32:45.976Z,-1.67
2023-03-07T06:35:32.997Z,-1.59
2023-03-07T06:38:13.003Z,-1.51
2023-03-07T06:41:09.978Z,-1.43
2023-03-07T06:43:59.974Z,-1.36
2023-03-07T06:46:33.093Z,-1.31
2023-03-07T06:49:19.982Z,-1.22
2023-03-07T06:51:53.121Z,-1.16
2023-03-07T06:54:39.967Z,-1.05
2023-03-07T06:57:13.080Z,-0.96
2023-03-07T06:59:59.983Z,-0.90
2023-03-07T07:02:33.219Z,-0.84
2023-03-07T07:05:19.992Z,-0.73
2023-03-07T07:07:53.112Z,-0.67
2023-03-07T07:10:40.013Z,-0.58
2023-03-07T07:13:13.084Z,-0.48
2023-03-07T07:15:59.984Z,-0.36
2023-03-07T07:18:33.089Z,-0.33
2023-03-07T07:21:20.011Z,-0.27
2023-03-07T07:23:53.106Z,-0.25
2023-03-07T07:26:39.980Z,-0.21
2023-03-07T07:29:13.660Z,-0.16
2023-03-07T07:32:00.046Z,-0.11
2023-03-07T07:34:33.128Z,-0.03
2023-03-07T07:37:20.034Z,0.02
2023-03-07T07:39:53.074Z,0.07
2023-03-07T07:42:40.012Z,0.11
2023-03-07T07:45:14.096Z,0.17
2023-03-07T07:48:01.000Z,0.29
2023-03-07T07:50:34.152Z,0.43
2023-03-07T07:53:24.000Z,0.59
2023-03-07T07:56:04.024Z,0.76
2023-03-07T07:58:51.014Z,0.97
2023-03-07T08:01:37.046Z,1.18
2023-03-07T08:04:31.015Z,1.41
2023-03-07T08:07:25.010Z,1.69
2023-03-07T08:10:12.037Z,1.91
2023-03-07T08:12:52.005Z,2.02
2023-03-07T08:15:46.077Z,2.14
2023-03-07T08:18:33.020Z,2.18
2023-03-07T08:21:06.206Z,2.27
2023-03-07T08:23:53.047Z,2.35
2023-03-07T08:26:26.727Z,2.44
2023-03-07T08:29:13.032Z,2.56
2023-03-07T08:31:51.827Z,2.68
2023-03-07T08:34:39.094Z,2.84
2023-03-07T08:37:12.193Z,2.97
2023-03-07T08:39:59.007Z,3.08
2023-03-07T08:42:32.185Z,3.18
2023-03-07T08:45:19.026Z,3.31
2023-03-07T08:47:52.137Z,3.42
2023-03-07T08:50:39.030Z,3.55
2023-03-07T08:53:19.013Z,3.68
2023-03-07T08:56:13.052Z,3.72
2023-03-07T08:59:07.024Z,3.85
2023-03-07T09:01:54.126Z,3.93
2023-03-07T09:04:27.173Z,4.04
2023-03-07T09:07:14.038Z,4.24
2023-03-07T09:09:54.027Z,4.36
2023-03-07T09:12:48.030Z,4.52
2023-03-07T09:15:42.037Z,4.58
2023-03-07T09:18:36.020Z,4.54
2023-03-07T09:21:30.035Z,4.49
2023-03-07T09:24:24.056Z,4.58
2023-03-07T09:27:18.059Z,4.59
2023-03-07T09:30:12.053Z,4.63
2023-03-07T09:33:06.075Z,4.66
2023-03-07T09:36:00.120Z,4.70
2023-03-07T09:38:57.754Z,4.73
2023-03-07T09:42:20.056Z,4.65
2023-03-07T09:45:26.066Z,4.69
2023-03-07T09:48:11.143Z,4.67
2023-03-07T09:51:11.501Z,4.63
2023-03-07T09:54:15.070Z,4.62
2023-03-07T09:57:15.340Z,4.63
2023-03-07T10:00:07.136Z,4.65
2023-03-07T10:02:56.175Z,4.63
2023-03-07T10:05:51.060Z,4.65
2023-03-07T10:08:40.062Z,4.72
2023-03-07T10:12:05.002Z,4.79
2023-03-07T10:15:29.083Z,4.90
2023-03-07T10:18:25.069Z,4.99
2023-03-07T10:21:26.062Z,5.07
2023-03-07T10:24:48.144Z,5.15
2023-03-07T10:27:23.164Z,5.15
2023-03-07T10:30:22.052Z,5.20
2023-03-07T10:33:09.072Z,5.25
2023-03-07T10:36:05.108Z,5.25
2023-03-07T10:38:59.090Z,5.22
2023-03-07T10:41:46.071Z,5.27
2023-03-07T10:44:25.221Z,5.35
2023-03-07T10:47:12.068Z,5.37
2023-03-07T10:49:53.672Z,5.36
2023-03-07T10:52:57.084Z,5.29
2023-03-07T10:55:50.070Z,5.23
2023-03-07T10:58:37.086Z,5.28
2023-03-07T11:01:34.125Z,5.32
2023-03-07T11:04:40.105Z,5.29
2023-03-07T11:07:50.161Z,5.33
2023-03-07T11:10:53.095Z,5.34
2023-03-07T11:13:41.063Z,5.26
2023-03-07T11:16:27.270Z,5.30
2023-03-07T11:19:41.085Z,5.36
2023-03-07T11:22:49.055Z,5.33
2023-03-07T11:25:50.085Z,5.37
2023-03-07T11:28:42.102Z,5.41
2023-03-07T11:31:50.081Z,5.42
2023-03-07T11:35:19.063Z,5.41
2023-03-07T11:38:27.104Z,5.48
2023-03-07T11:41:21.111Z,5.53
2023-03-07T11:44:54.118Z,5.52
2023-03-07T11:48:29.110Z,5.56
2023-03-07T11:51:04.709Z,5.67
2023-03-07T11:54:13.087Z,5.71
2023-03-07T11:57:00.156Z,5.74
2023-03-07T12:00:32.106Z,5.71
2023-03-07T12:03:31.100Z,5.64
2023-03-07T12:06:39.096Z,5.62
2023-03-07T12:09:36.155Z,5.58
2023-03-07T12:12:34.141Z,5.44
2023-03-07T12:15:43.118Z,5.32
2023-03-07T12:18:56.118Z,5.18
2023-03-07T12:22:02.132Z,5.12
2023-03-07T12:24:50.203Z,5.12
2023-03-07T12:27:52.120Z,5.03
2023-03-07T12:30:55.118Z,4.92
2023-03-07T12:33:44.113Z,4.82
2023-03-07T12:36:27.309Z,4.81
2023-03-07T12:39:38.137Z,4.77
2023-03-07T12:42:35.238Z,4.73
2023-03-07T12:45:30.142Z,4.74
2023-03-07T12:48:21.125Z,4.79
2023-03-07T12:51:29.237Z,4.83
2023-03-07T12:54:31.145Z,4.83
2023-03-07T12:57:48.110Z,4.87
2023-03-07T13:00:36.115Z,4.86
2023-03-07T13:03:10.219Z,4.91
2023-03-07T13:05:58.173Z,4.94
2023-03-07T13:08:32.321Z,4.96
2023-03-07T13:11:34.350Z,4.97
2023-03-07T13:14:10.259Z,4.99
2023-03-07T13:17:01.124Z,5.00
2023-03-07T13:19:50.107Z,5.03
2023-03-07T13:22:44.136Z,5.05
2023-03-07T13:25:33.155Z,4.97
2023-03-07T13:28:08.228Z,4.95
2023-03-07T13:31:20.354Z,4.98
2023-03-07T13:33:53.354Z,4.90
2023-03-07T13:36:43.210Z,4.88
2023-03-07T13:40:15.166Z,4.85
2023-03-07T13:43:09.162Z,4.79
2023-03-07T13:46:17.177Z,4.74
2023-03-07T13:49:04.175Z,4.73
2023-03-07T13:51:44.268Z,4.72
2023-03-07T13:54:38.150Z,4.71
2023-03-07T13:57:30.041Z,4.73
2023-03-07T14:00:04.823Z,4.76
2023-03-07T14:02:52.256Z,4.84
2023-03-07T14:05:26.214Z,4.89
2023-03-07T14:08:21.148Z,4.95
2023-03-07T14:10:55.295Z,4.98
2023-03-07T14:14:16.175Z,5.02
2023-03-07T14:16:56.147Z,5.06
2023-03-07T14:19:56.153Z,5.03
2023-03-07T14:22:58.164Z,4.98
2023-03-07T14:25:41.290Z,4.99
2023-03-07T14:28:34.157Z,4.93
2023-03-07T14:31:10.337Z,4.87
2023-03-07T14:33:58.174Z,4.82
2023-03-07T14:36:36.313Z,4.79
2023-03-07T14:39:23.187Z,4.77
2023-03-07T14:42:03.257Z,4.76
2023-03-07T14:45:17.174Z,4.72
2023-03-07T14:48:14.250Z,4.68
2023-03-07T14:51:01.152Z,4.65
2023-03-07T14:53:38.273Z,4.60
2023-03-07T14:56:34.167Z,4.59
2023-03-07T14:59:27.969Z,4.58
2023-03-07T15:02:32.160Z,4.57
2023-03-07T15:05:25.188Z,4.57
2023-03-07T15:08:05.163Z,4.58
2023-03-07T15:10:56.149Z,4.57
2023-03-07T15:13:48.204Z,4.56
2023-03-07T15:16:48.146Z,4.56
2023-03-07T15:19:49.186Z,4.50
2023-03-07T15:22:39.232Z,4.49
2023-03-07T15:25:35.171Z,4.48
2023-03-07T15:28:27.185Z,4.46
2023-03-07T15:31:00.320Z,4.38
2023-03-07T15:33:47.191Z,4.30
2023-03-07T15:36:20.756Z,4.29
2023-03-07T15:39:33.214Z,4.23
2023-03-07T15:42:12.400Z,4.19
2023-03-07T15:45:06.203Z,4.13
2023-03-07T15:47:48.200Z,4.06
2023-03-07T15:50:42.208Z,4.02
2023-03-07T15:54:07.193Z,3.99
2023-03-07T15:57:08.212Z,3.97
2023-03-07T16:00:27.195Z,3.94
2023-03-07T16:03:18.418Z,3.88
2023-03-07T16:06:07.210Z,3.83
2023-03-07T16:08:47.196Z,3.80
2023-03-07T16:11:41.207Z,3.76
2023-03-07T16:14:38.210Z,3.73
2023-03-07T16:17:53.090Z,3.69
2023-03-07T16:20:40.208Z,3.64
2023-03-07T16:23:19.339Z,3.57
2023-03-07T16:26:10.198Z,3.51
2023-03-07T16:28:44.254Z,3.45
2023-03-07T16:31:31.351Z,3.36
2023-03-07T16:34:11.195Z,3.32
2023-03-07T16:37:05.196Z,3.27
2023-03-07T16:39:52.206Z,3.22
2023-03-07T16:42:30.687Z,3.15
2023-03-07T16:45:35.258Z,3.11
2023-03-07T16:48:08.305Z,3.08
2023-03-07T16:50:55.209Z,3.05
2023-03-07T16:53:28.373Z,3.02
2023-03-07T16:56:25.233Z,2.98
2023-03-07T16:58:59.359Z,2.99
2023-03-07T17:01:47.256Z,2.94
2023-03-07T17:04:28.200Z,2.93
2023-03-07T17:07:33.211Z,2.91
2023-03-07T17:10:20.217Z,2.89
2023-03-07T17:12:55.082Z,2.87
2023-03-07T17:15:43.275Z,2.83
2023-03-07T17:18:17.395Z,2.82
2023-03-07T17:21:04.230Z,2.77
2023-03-07T17:23:37.366Z,2.79
2023-03-07T17:26:37.204Z,2.77
2023-03-07T17:29:16.324Z,2.75
2023-03-07T17:32:03.333Z,2.72
2023-03-07T17:34:39.433Z,2.70
2023-03-07T17:37:26.245Z,2.66
2023-03-07T17:40:00.585Z,2.63
2023-03-07T17:42:49.236Z,2.62
2023-03-07T17:45:25.337Z,2.57
2023-03-07T17:48:12.259Z,2.54
2023-03-07T17:50:46.390Z,2.48
2023-03-07T17:53:40.209Z,2.46
2023-03-07T17:56:34.239Z,2.42
2023-03-07T17:59:28.235Z,2.41
2023-03-07T18:02:25.246Z,2.40
2023-03-07T18:05:13.227Z,2.36
2023-03-07T18:07:58.242Z,2.37
2023-03-07T18:10:52.235Z,2.36
2023-03-07T18:13:39.262Z,2.32
2023-03-07T18:16:13.378Z,2.30
2023-03-07T18:19:02.900Z,2.29
2023-03-07T18:21:37.388Z,2.29
2023-03-07T18:24:30.350Z,2.27
2023-03-07T18:27:08.651Z,2.25
2023-03-07T18:29:55.304Z,2.26
2023-03-07T18:32:29.301Z,2.26
2023-03-07T18:35:16.252Z,2.26
2023-03-07T18:37:56.251Z,2.26
2023-03-07T18:40:43.290Z,2.26
2023-03-07T18:43:23.290Z,2.24
2023-03-07T18:46:15.339Z,2.27
2023-03-07T18:48:49.354Z,2.29
2023-03-07T18:51:36.251Z,2.30
2023-03-07T18:54:09.571Z,2.32
2023-03-07T18:56:56.249Z,2.33
2023-03-07T18:59:36.262Z,2.36
2023-03-07T19:02:30.316Z,2.35
2023-03-07T19:05:17.239Z,2.37
2023-03-07T19:07:50.372Z,2.36
2023-03-07T19:10:37.238Z,2.35
2023-03-07T19:13:11.517Z,2.33
2023-03-07T19:16:07.322Z,2.32
2023-03-07T19:18:48.289Z,2.31
2023-03-07T19:21:43.264Z,2.31
2023-03-07T19:24:30.254Z,2.30
2023-03-07T19:27:03.357Z,2.29
2023-03-07T19:29:50.263Z,2.29
2023-03-07T19:32:23.513Z,2.29
2023-03-07T19:35:11.276Z,2.27
2023-03-07T19:37:52.308Z,2.28
2023-03-07T19:40:46.284Z,2.24
2023-03-07T19:43:41.393Z,2.24
2023-03-07T19:46:35.272Z,2.22
2023-03-07T19:49:33.267Z,2.16
2023-03-07T19:52:27.288Z,2.15
2023-03-07T19:55:21.312Z,2.12
2023-03-07T19:58:15.275Z,2.13
2023-03-07T20:01:09.369Z,2.12
2023-03-07T20:03:57.280Z,2.12
2023-03-07T20:06:33.429Z,2.15
2023-03-07T20:09:20.270Z,2.14
2023-03-07T20:12:00.280Z,2.13
2023-03-07T20:14:54.260Z,2.12
2023-03-07T20:17:48.295Z,2.11
2023-03-07T20:20:42.273Z,2.07
2023-03-07T20:23:36.295Z,2.07
2023-03-07T20:26:29.298Z,2.09
2023-03-07T20:29:10.262Z,2.10
2023-03-07T20:32:04.382Z,2.12
2023-03-07T20:34:51.284Z,2.17
2023-03-07T20:37:24.399Z,2.20
2023-03-07T20:40:15.329Z,2.22
2023-03-07T20:42:48.403Z,2.24
2023-03-07T20:45:35.309Z,2.28
2023-03-07T20:48:15.282Z,2.30
2023-03-07T20:51:27.320Z,2.33
2023-03-07T20:54:29.296Z,2.32
2023-03-07T20:57:23.319Z,2.35
2023-03-07T21:00:17.319Z,2.34
2023-03-07T21:03:06.206Z,2.35
2023-03-07T21:05:39.472Z,2.38
2023-03-07T21:08:26.304Z,2.41
2023-03-07T21:11:20.434Z,2.42
2023-03-07T21:14:14.319Z,2.44
2023-03-07T21:17:01.430Z,2.46
2023-03-07T21:19:34.922Z,2.46
2023-03-07T21:22:21.705Z,2.47
2023-03-07T21:24:55.549Z,2.49
2023-03-07T21:27:42.401Z,2.50
2023-03-07T21:30:19.752Z,2.49
2023-03-07T21:33:06.401Z,2.51
2023-03-07T21:35:49.499Z,2.52
2023-03-07T21:38:37.359Z,2.54
2023-03-07T21:41:19.345Z,2.55
2023-03-07T21:44:17.304Z,2.53
2023-03-07T21:47:11.607Z,2.53
2023-03-07T21:49:59.638Z,2.55
2023-03-07T21:52:42.331Z,2.56
2023-03-07T21:55:31.338Z,2.54
2023-03-07T21:58:12.466Z,2.56
2023-03-07T22:01:07.355Z,2.58
2023-03-07T22:04:01.381Z,2.59
2023-03-07T22:06:48.322Z,2.59
2023-03-07T22:09:28.331Z,2.57
2023-03-07T22:12:15.324Z,2.57
2023-03-07T22:14:55.328Z,2.58
2023-03-07T22:17:50.320Z,2.60
2023-03-07T22:20:37.313Z,2.59
2023-03-07T22:23:10.430Z,2.60
2023-03-07T22:25:57.311Z,2.60
2023-03-07T22:28:37.336Z,2.61
2023-03-07T22:31:31.361Z,2.62
2023-03-07T22:34:18.329Z,2.61
2023-03-07T22:36:51.503Z,2.61
2023-03-07T22:39:38.334Z,2.62
2023-03-07T22:42:11.438Z,2.64
2023-03-07T22:44:58.326Z,2.65
2023-03-07T22:47:31.479Z,2.66
2023-03-07T22:50:18.356Z,2.67
2023-03-07T22:52:51.469Z,2.66
2023-03-07T22:55:38.348Z,2.68
2023-03-07T22:58:11.422Z,2.69
2023-03-07T23:00:58.360Z,2.71
2023-03-07T23:03:31.542Z,2.71
2023-03-07T23:06:18.370Z,2.70
2023-03-07T23:08:52.497Z,2.70
2023-03-07T23:11:40.354Z,2.71
2023-03-07T23:14:20.353Z,2.70
2023-03-07T23:17:07.348Z,2.70
2023-03-07T23:19:40.518Z,2.70
2023-03-07T23:22:27.360Z,2.70
2023-03-07T23:25:00.463Z,2.71
2023-03-07T23:27:47.376Z,2.71
2023-03-07T23:30:28.349Z,2.71
2023-03-07T23:33:22.366Z,2.72
2023-03-07T23:36:09.365Z,2.73
2023-03-07T23:38:42.469Z,2.74
2023-03-07T23:41:29.361Z,2.74
2023-03-07T23:44:04.447Z,2.72
2023-03-07T23:46:51.391Z,2.74
2023-03-07T23:49:24.550Z,2.74
2023-03-07T23:52:11.427Z,2.74
2023-03-07T23:54:51.467Z,2.74
2023-03-07T23:57:45.342Z,2.75
